createdAt,value
2022-10-15T00:00:17.396Z,32.63
2022-10-15T00:02:44.333Z,31.10
2022-10-15T00:05:15.002Z,29.95
2022-10-15T00:07:43.375Z,28.88
2022-10-15T00:10:10.239Z,29.67
2022-10-15T00:12:38.538Z,29.80
2022-10-15T00:15:06.917Z,29.58
2022-10-15T00:17:37.317Z,26.70
2022-10-15T00:20:06.393Z,29.52
2022-10-15T00:22:34.833Z,27.95
2022-10-15T00:25:02.104Z,29.55
2022-10-15T00:27:29.118Z,27.25
2022-10-15T00:30:00.451Z,27.75
2022-10-15T00:32:27.562Z,28.40
2022-10-15T00:34:55.242Z,28.70
2022-10-15T00:37:23.278Z,27.35
2022-10-15T00:39:50.497Z,26.77
2022-10-15T00:42:18.617Z,27.60
2022-10-15T00:44:54.415Z,27.10
2022-10-15T00:47:33.490Z,28.08
2022-10-15T00:50:10.513Z,27.90
2022-10-15T00:52:46.662Z,26.48
2022-10-15T00:55:25.110Z,27.05
2022-10-15T00:57:53.493Z,28.42
2022-10-15T01:00:21.013Z,27.48
2022-10-15T01:02:47.945Z,27.50
2022-10-15T01:05:18.806Z,26.33
2022-10-15T01:07:45.915Z,27.33
2022-10-15T01:10:17.108Z,26.65
2022-10-15T01:13:17.096Z,24.30
2022-10-15T01:16:04.474Z,26.98
2022-10-15T01:18:42.504Z,27.02
2022-10-15T01:21:21.260Z,27.30
2022-10-15T01:24:22.184Z,26.95
2022-10-15T01:27:20.849Z,26.45
2022-10-15T01:30:05.692Z,25.50
2022-10-15T01:32:51.470Z,27.30
2022-10-15T01:35:43.760Z,27.15
2022-10-15T01:38:47.071Z,27.23
2022-10-15T01:41:32.345Z,27.20
2022-10-15T01:44:06.370Z,27.85
2022-10-15T01:46:51.021Z,27.35
2022-10-15T01:49:26.405Z,27.75
2022-10-15T01:51:59.098Z,28.13
2022-10-15T01:56:56.088Z,25.73
2022-10-15T01:59:25.843Z,28.17
2022-10-15T02:01:56.274Z,30.15
2022-10-15T02:04:29.576Z,28.40
2022-10-15T02:07:14.282Z,29.75
2022-10-15T02:09:58.226Z,31.23
2022-10-15T02:12:50.923Z,30.25
2022-10-15T02:15:21.693Z,31.20
2022-10-15T02:18:00.771Z,32.00
2022-10-15T02:20:31.464Z,32.08
2022-10-15T02:23:12.557Z,31.23
2022-10-15T02:25:46.488Z,29.05
2022-10-15T02:28:15.900Z,30.30
2022-10-15T02:30:48.287Z,29.02
2022-10-15T02:33:17.639Z,29.70
2022-10-15T02:35:47.216Z,29.50
2022-10-15T02:38:17.835Z,29.23
2022-10-15T02:40:46.530Z,28.35
2022-10-15T02:43:21.607Z,25.95
2022-10-15T02:45:53.024Z,25.75
2022-10-15T02:48:30.457Z,26.60
2022-10-15T02:51:00.667Z,28.23
2022-10-15T02:53:32.544Z,27.67
2022-10-15T02:55:59.706Z,26.95
2022-10-15T02:58:30.887Z,25.63
2022-10-15T03:01:00.239Z,25.45
2022-10-15T03:07:42.829Z,24.92
2022-10-15T03:11:04.551Z,24.63
2022-10-15T03:13:41.767Z,26.23
2022-10-15T03:16:21.369Z,25.42
2022-10-15T03:18:49.366Z,26.60
2022-10-15T03:21:21.583Z,27.52
2022-10-15T03:23:49.763Z,27.60
2022-10-15T03:26:20.596Z,28.27
2022-10-15T03:28:51.911Z,27.90
2022-10-15T03:31:33.545Z,27.88
2022-10-15T03:34:03.274Z,28.42
2022-10-15T03:36:31.217Z,26.38
2022-10-15T03:39:00.305Z,28.83
2022-10-15T03:41:27.430Z,27.90
2022-10-15T03:43:56.280Z,28.10
2022-10-15T03:46:24.459Z,28.73
2022-10-15T03:48:53.408Z,29.38
2022-10-15T03:51:24.412Z,24.10
2022-10-15T03:54:00.066Z,24.17
2022-10-15T03:56:28.360Z,23.60
2022-10-15T03:59:09.207Z,24.02
2022-10-15T04:01:43.754Z,24.95
2022-10-15T04:04:40.865Z,23.70
2022-10-15T04:07:11.417Z,24.80
2022-10-15T04:09:39.765Z,22.90
2022-10-15T04:12:47.505Z,21.55
2022-10-15T04:15:19.580Z,21.15
2022-10-15T04:17:57.355Z,21.20
2022-10-15T04:20:26.867Z,20.97
2022-10-15T04:22:57.213Z,19.42
2022-10-15T04:25:25.964Z,19.75
2022-10-15T04:28:00.993Z,19.55
2022-10-15T04:30:33.037Z,18.73
2022-10-15T04:33:04.348Z,18.08
2022-10-15T04:35:32.202Z,18.98
2022-10-15T04:38:25.465Z,16.17
2022-10-15T04:41:08.107Z,16.00
2022-10-15T04:43:55.747Z,15.55
2022-10-15T04:46:23.904Z,17.48
2022-10-15T04:48:55.134Z,16.60
2022-10-15T04:51:22.218Z,16.55
2022-10-15T04:54:02.615Z,16.05
2022-10-15T04:56:30.824Z,14.82
2022-10-15T04:58:57.831Z,15.85
2022-10-15T05:01:29.183Z,14.30
2022-10-15T05:04:04.411Z,14.70
2022-10-15T05:06:34.004Z,15.40
2022-10-15T05:09:14.801Z,14.40
2022-10-15T05:12:32.950Z,15.10
2022-10-15T05:15:29.280Z,12.40
2022-10-15T05:18:00.181Z,12.70
2022-10-15T05:20:39.389Z,13.63
2022-10-15T05:23:13.718Z,14.65
2022-10-15T05:25:43.792Z,12.15
2022-10-15T05:28:20.231Z,12.25
2022-10-15T05:30:47.420Z,12.23
2022-10-15T05:33:14.575Z,11.95
2022-10-15T05:35:41.838Z,11.45
2022-10-15T05:38:08.921Z,11.38
2022-10-15T05:40:36.029Z,10.15
2022-10-15T05:43:10.156Z,11.07
2022-10-15T05:45:37.143Z,11.57
2022-10-15T05:48:07.185Z,10.57
2022-10-15T05:50:35.578Z,11.50
2022-10-15T05:53:07.045Z,10.50
2022-10-15T05:55:53.939Z,10.80
2022-10-15T05:58:22.543Z,10.13
2022-10-15T06:00:56.861Z,9.10
2022-10-15T06:03:24.658Z,8.57
2022-10-15T06:05:51.907Z,9.38
2022-10-15T06:08:20.336Z,8.93
2022-10-15T06:10:53.313Z,9.23
2022-10-15T06:13:21.874Z,9.35
2022-10-15T06:15:51.875Z,9.00
2022-10-15T06:18:21.364Z,8.52
2022-10-15T06:20:52.784Z,8.70
2022-10-15T06:26:08.808Z,7.97
2022-10-15T06:28:36.639Z,8.73
2022-10-15T06:31:05.477Z,8.30
2022-10-15T06:33:32.858Z,7.97
2022-10-15T06:36:08.275Z,8.18
2022-10-15T06:38:36.733Z,8.80
2022-10-15T06:41:07.700Z,8.50
2022-10-15T06:43:35.615Z,7.90
2022-10-15T06:46:05.253Z,8.00
2022-10-15T06:48:33.006Z,8.52
2022-10-15T06:51:01.900Z,8.05
2022-10-15T06:53:29.998Z,8.38
2022-10-15T06:55:58.875Z,8.07
2022-10-15T06:58:26.756Z,8.32
2022-10-15T07:00:54.262Z,8.23
2022-10-15T07:03:21.348Z,9.27
2022-10-15T07:06:00.131Z,8.65
2022-10-15T07:08:28.121Z,8.45
2022-10-15T07:11:46.968Z,7.75
2022-10-15T07:15:17.476Z,7.57
2022-10-15T07:17:52.203Z,7.20
2022-10-15T07:20:24.459Z,6.88
2022-10-15T07:22:56.068Z,7.15
2022-10-15T07:25:39.161Z,7.28
2022-10-15T07:28:08.174Z,6.70
2022-10-15T07:30:39.426Z,6.90
2022-10-15T07:33:44.134Z,6.57
2022-10-15T07:36:14.069Z,7.07
2022-10-15T07:38:43.068Z,6.10
2022-10-15T07:41:14.953Z,5.75
2022-10-15T07:43:53.864Z,6.68
2022-10-15T07:46:25.108Z,5.82
2022-10-15T07:49:57.792Z,5.57
2022-10-15T07:52:27.687Z,5.47
2022-10-15T07:54:55.832Z,5.78
2022-10-15T07:57:22.975Z,5.35
2022-10-15T08:03:52.765Z,4.68
2022-10-15T08:06:22.179Z,4.60
2022-10-15T08:08:51.279Z,4.20
2022-10-15T08:11:33.226Z,3.72
2022-10-15T08:14:00.621Z,3.63
2022-10-15T08:16:27.696Z,3.80
2022-10-15T08:19:02.798Z,3.42
2022-10-15T08:21:32.272Z,3.13
2022-10-15T08:24:00.858Z,2.78
2022-10-15T08:26:36.641Z,3.30
2022-10-15T08:29:05.292Z,2.97
2022-10-15T08:31:32.949Z,2.40
2022-10-15T08:34:01.975Z,2.10
2022-10-15T08:36:30.182Z,2.30
2022-10-15T08:39:00.458Z,2.30
2022-10-15T08:41:38.398Z,2.22
2022-10-15T08:44:07.118Z,2.00
2022-10-15T08:46:39.532Z,1.73
2022-10-15T08:49:21.606Z,1.70
2022-10-15T08:51:54.756Z,1.60
2022-10-15T08:54:21.746Z,1.60
2022-10-15T08:57:29.939Z,1.52
2022-10-15T09:00:27.673Z,1.35
2022-10-15T09:03:47.822Z,1.45
2022-10-15T09:06:25.472Z,1.42
2022-10-15T09:09:11.509Z,1.20
2022-10-15T09:11:55.660Z,1.10
2022-10-15T09:14:29.001Z,0.80
2022-10-15T09:17:02.260Z,0.95
2022-10-15T09:19:36.040Z,0.82
2022-10-15T09:22:03.531Z,0.95
2022-10-15T09:24:31.774Z,0.85
2022-10-15T09:27:16.721Z,0.90
2022-10-15T09:30:39.120Z,0.90
2022-10-15T09:33:18.748Z,1.20
2022-10-15T09:35:52.719Z,1.02
2022-10-15T09:39:08.086Z,0.90
2022-10-15T09:42:10.445Z,1.17
2022-10-15T09:44:42.847Z,0.98
2022-10-15T09:47:24.783Z,0.95
2022-10-15T09:50:01.314Z,0.82
2022-10-15T09:52:47.807Z,1.50
2022-10-15T09:55:44.392Z,1.00
2022-10-15T09:58:44.272Z,1.23
2022-10-15T10:01:23.577Z,1.13
2022-10-15T10:04:20.432Z,1.08
2022-10-15T10:07:28.942Z,1.10
2022-10-15T10:10:00.388Z,1.33
2022-10-15T10:12:37.715Z,1.35
2022-10-15T10:15:29.644Z,1.13
2022-10-15T10:17:57.596Z,1.50
2022-10-15T10:20:29.400Z,0.95
2022-10-15T10:22:57.421Z,1.47
2022-10-15T10:25:36.183Z,1.20
2022-10-15T10:28:09.434Z,1.42
2022-10-15T10:31:20.590Z,1.30
2022-10-15T10:33:50.745Z,1.20
2022-10-15T10:36:32.823Z,1.35
2022-10-15T10:39:06.731Z,1.30
2022-10-15T10:41:59.289Z,1.50
2022-10-15T10:44:35.293Z,1.52
2022-10-15T10:47:14.331Z,1.30
2022-10-15T10:49:59.416Z,1.58
2022-10-15T10:52:34.771Z,1.98
2022-10-15T10:55:07.269Z,1.40
2022-10-15T10:57:56.534Z,1.40
2022-10-15T11:00:49.443Z,1.63
2022-10-15T11:03:42.349Z,1.60
2022-10-15T11:06:45.670Z,1.50
2022-10-15T11:17:43.556Z,1.40
2022-10-15T11:20:58.737Z,1.08
2022-10-15T11:23:39.996Z,1.38
2022-10-15T11:26:22.377Z,1.00
2022-10-15T11:29:14.747Z,1.10
2022-10-15T11:32:01.769Z,1.60
2022-10-15T11:38:27.077Z,1.40
2022-10-15T11:42:11.855Z,1.50
2022-10-15T11:48:16.550Z,1.70
2022-10-15T11:51:30.709Z,1.50
2022-10-15T11:57:26.021Z,1.48
2022-10-15T12:00:23.066Z,1.05
2022-10-15T12:02:55.991Z,1.20
2022-10-15T12:15:40.817Z,1.60
2022-10-15T12:19:10.857Z,1.92
2022-10-15T12:21:55.548Z,1.80
2022-10-15T12:24:41.570Z,1.45
2022-10-15T12:27:27.112Z,1.45
2022-10-15T12:30:00.274Z,1.20
2022-10-15T12:32:38.052Z,1.25
2022-10-15T12:35:27.017Z,1.20
2022-10-15T12:37:54.006Z,0.85
2022-10-15T12:40:31.359Z,0.63
2022-10-15T12:43:02.740Z,0.70
2022-10-15T12:45:48.112Z,0.75
2022-10-15T12:48:15.160Z,1.00
2022-10-15T12:50:42.663Z,0.90
2022-10-15T12:56:10.417Z,0.70
2022-10-15T12:58:55.567Z,0.65
2022-10-15T13:01:22.739Z,0.60
2022-10-15T13:03:49.958Z,0.65
2022-10-15T13:06:23.390Z,0.55
2022-10-15T13:09:11.777Z,0.80
2022-10-15T13:11:48.282Z,1.00
2022-10-15T13:14:28.380Z,1.08
2022-10-15T13:16:59.710Z,0.90
2022-10-15T13:19:33.090Z,1.00
2022-10-15T13:22:02.630Z,0.82
2022-10-15T13:24:43.704Z,1.20
2022-10-15T13:27:19.966Z,0.93
2022-10-15T13:30:04.378Z,1.02
2022-10-15T13:32:35.186Z,0.77
2022-10-15T13:35:11.226Z,0.80
2022-10-15T13:37:40.463Z,1.48
2022-10-15T13:40:10.952Z,0.90
2022-10-15T13:42:38.896Z,1.08
2022-10-15T13:45:17.897Z,1.00
2022-10-15T13:47:51.465Z,1.08
2022-10-15T13:50:26.891Z,1.90
2022-10-15T13:52:56.639Z,1.20
2022-10-15T13:55:28.515Z,0.80
2022-10-15T13:58:02.165Z,1.20
2022-10-15T14:00:34.911Z,1.60
2022-10-15T14:03:08.114Z,1.10
2022-10-15T14:05:35.616Z,1.20
2022-10-15T14:08:03.503Z,1.20
2022-10-15T14:10:30.908Z,1.10
2022-10-15T14:12:58.062Z,1.10
2022-10-15T14:16:00.588Z,1.40
2022-10-15T14:18:34.437Z,1.02
2022-10-15T14:21:03.458Z,1.00
2022-10-15T14:23:31.491Z,1.23
2022-10-15T14:26:01.144Z,1.52
2022-10-15T14:28:32.051Z,1.50
2022-10-15T14:31:00.252Z,3.03
2022-10-15T14:33:43.362Z,1.58
2022-10-15T14:36:24.015Z,0.95
2022-10-15T14:38:53.703Z,0.98
2022-10-15T14:41:26.294Z,0.75
2022-10-15T14:44:12.298Z,0.95
2022-10-15T14:46:48.471Z,1.10
2022-10-15T14:49:27.052Z,1.00
2022-10-15T14:51:59.333Z,0.88
2022-10-15T14:54:39.182Z,1.00
2022-10-15T14:57:30.642Z,1.48
2022-10-15T14:59:59.069Z,1.30
2022-10-15T15:02:31.017Z,1.67
2022-10-15T15:05:12.695Z,1.08
2022-10-15T15:07:40.632Z,0.70
2022-10-15T15:10:09.348Z,1.25
2022-10-15T15:12:39.439Z,0.80
2022-10-15T15:15:15.391Z,1.60
2022-10-15T15:17:42.252Z,1.45
2022-10-15T15:20:10.973Z,1.48
2022-10-15T15:22:40.494Z,0.95
2022-10-15T15:25:15.588Z,1.15
2022-10-15T15:27:42.635Z,1.30
2022-10-15T15:30:19.000Z,0.90
2022-10-15T15:32:48.191Z,1.40
2022-10-15T15:35:39.057Z,1.10
2022-10-15T15:38:12.242Z,1.52
2022-10-15T15:40:39.287Z,1.30
2022-10-15T15:43:06.289Z,1.40
2022-10-15T15:45:33.310Z,1.17
2022-10-15T15:48:03.579Z,1.27
2022-10-15T15:50:33.021Z,1.30
2022-10-15T15:53:01.113Z,1.35
2022-10-15T15:55:28.077Z,1.15
2022-10-15T15:57:56.001Z,1.42
2022-10-15T16:00:23.934Z,1.30
2022-10-15T16:02:54.055Z,0.90
2022-10-15T16:05:24.586Z,1.55
2022-10-15T16:07:51.590Z,1.38
2022-10-15T16:10:18.647Z,1.60
2022-10-15T16:12:45.615Z,1.55
2022-10-15T16:15:14.695Z,1.95
2022-10-15T16:17:43.799Z,1.60
2022-10-15T16:20:12.727Z,1.60
2022-10-15T16:22:39.662Z,1.92
2022-10-15T16:25:07.194Z,1.30
2022-10-15T16:27:34.598Z,1.60
2022-10-15T16:30:04.213Z,1.75
2022-10-15T16:32:32.250Z,1.80
2022-10-15T16:34:59.778Z,1.60
2022-10-15T16:37:28.239Z,1.63
2022-10-15T16:39:56.402Z,2.30
2022-10-15T16:42:26.976Z,1.95
2022-10-15T16:44:53.885Z,2.40
2022-10-15T16:47:23.084Z,2.20
2022-10-15T16:49:55.547Z,1.98
2022-10-15T16:52:23.917Z,1.85
2022-10-15T16:54:51.266Z,2.15
2022-10-15T16:57:18.147Z,1.70
2022-10-15T16:59:45.032Z,2.08
2022-10-15T17:02:13.154Z,3.25
2022-10-15T17:04:40.090Z,3.50
2022-10-15T17:07:07.035Z,3.45
2022-10-15T17:09:35.089Z,3.10
2022-10-15T17:12:02.214Z,2.35
2022-10-15T17:14:29.301Z,3.00
2022-10-15T17:16:57.423Z,2.60
2022-10-15T17:19:28.945Z,2.28
2022-10-15T17:21:59.908Z,2.55
2022-10-15T17:24:27.785Z,2.08
2022-10-15T17:26:54.929Z,2.65
2022-10-15T17:29:23.043Z,2.35
2022-10-15T17:31:51.182Z,2.38
2022-10-15T17:34:26.010Z,2.08
2022-10-15T17:36:56.992Z,2.55
2022-10-15T17:39:24.102Z,2.53
2022-10-15T17:41:51.865Z,2.30
2022-10-15T17:44:19.165Z,2.28
2022-10-15T17:46:46.072Z,2.10
2022-10-15T17:49:18.561Z,2.40
2022-10-15T17:54:17.201Z,2.20
2022-10-15T17:56:48.699Z,2.03
2022-10-15T17:59:15.681Z,2.55
2022-10-15T18:02:00.573Z,2.67
2022-10-15T18:04:31.035Z,2.67
2022-10-15T18:06:58.275Z,2.40
2022-10-15T18:09:28.393Z,2.38
2022-10-15T18:12:00.504Z,2.17
2022-10-15T18:14:34.098Z,2.67
2022-10-15T18:17:02.221Z,2.90
2022-10-15T18:19:29.271Z,2.38
2022-10-15T18:21:56.529Z,3.20
2022-10-15T18:24:24.247Z,3.45
2022-10-15T18:26:51.593Z,3.25
2022-10-15T18:29:18.902Z,3.85
2022-10-15T18:31:47.636Z,3.08
2022-10-15T18:34:14.832Z,3.65
2022-10-15T18:36:43.573Z,2.83
2022-10-15T18:39:11.053Z,3.25
2022-10-15T18:41:40.051Z,3.13
2022-10-15T18:44:13.545Z,2.92
2022-10-15T18:46:42.388Z,2.83
2022-10-15T18:49:09.350Z,2.65
2022-10-15T18:51:36.430Z,3.03
2022-10-15T18:54:04.702Z,3.22
2022-10-15T18:56:32.694Z,3.03
2022-10-15T18:58:59.721Z,3.40
2022-10-15T19:01:29.752Z,3.33
2022-10-15T19:03:59.246Z,3.75
2022-10-15T19:06:29.755Z,4.78
2022-10-15T19:08:58.061Z,4.88
2022-10-15T19:11:29.956Z,4.68
2022-10-15T19:13:59.584Z,4.10
2022-10-15T19:16:27.383Z,4.00
2022-10-15T19:19:00.928Z,4.22
2022-10-15T19:21:27.978Z,3.80
2022-10-15T19:23:57.206Z,4.50
2022-10-15T19:26:27.926Z,4.65
2022-10-15T19:28:56.900Z,4.63
2022-10-15T19:31:34.122Z,4.05
2022-10-15T19:34:03.285Z,4.50
2022-10-15T19:36:37.875Z,4.32
2022-10-15T19:39:07.433Z,4.75
2022-10-15T19:41:38.723Z,4.80
2022-10-15T19:44:08.355Z,5.05
2022-10-15T19:46:39.116Z,4.82
2022-10-15T19:49:08.873Z,4.32
2022-10-15T19:51:36.358Z,3.70
2022-10-15T19:54:06.310Z,4.20
2022-10-15T19:56:33.612Z,3.85
2022-10-15T19:59:03.405Z,4.60
2022-10-15T20:01:31.015Z,4.90
2022-10-15T20:04:04.843Z,4.38
2022-10-15T20:06:34.576Z,4.53
2022-10-15T20:09:02.241Z,4.22
2022-10-15T20:11:30.511Z,4.32
2022-10-15T20:13:59.427Z,4.60
2022-10-15T20:16:28.804Z,4.93
2022-10-15T20:19:05.523Z,4.00
2022-10-15T20:21:32.627Z,4.68
2022-10-15T20:24:04.411Z,4.20
2022-10-15T20:26:32.556Z,4.22
2022-10-15T20:28:59.730Z,4.55
2022-10-15T20:31:32.027Z,4.35
2022-10-15T20:34:00.731Z,3.92
2022-10-15T20:36:29.984Z,4.20
2022-10-15T20:38:59.346Z,4.30
2022-10-15T20:41:27.815Z,3.95
2022-10-15T20:43:56.409Z,3.75
2022-10-15T20:46:36.914Z,3.10
2022-10-15T20:51:42.723Z,3.80
2022-10-15T20:54:26.508Z,3.63
2022-10-15T20:56:55.268Z,3.60
2022-10-15T20:59:27.889Z,4.03
2022-10-15T21:01:57.248Z,3.40
2022-10-15T21:04:31.221Z,3.03
2022-10-15T21:06:59.242Z,3.78
2022-10-15T21:09:27.159Z,3.50
2022-10-15T21:11:55.156Z,3.67
2022-10-15T21:14:24.280Z,3.45
2022-10-15T21:16:53.247Z,3.50
2022-10-15T21:19:21.394Z,4.50
2022-10-15T21:21:51.434Z,4.03
2022-10-15T21:24:18.552Z,3.50
2022-10-15T21:26:46.637Z,3.45
2022-10-15T21:29:17.274Z,3.90
2022-10-15T21:31:47.766Z,3.50
2022-10-15T21:34:16.036Z,3.70
2022-10-15T21:36:43.921Z,4.38
2022-10-15T21:39:12.585Z,4.47
2022-10-15T21:41:39.996Z,3.65
2022-10-15T21:44:08.294Z,3.50
2022-10-15T21:46:36.898Z,3.10
2022-10-15T21:49:04.415Z,3.17
2022-10-15T21:51:33.561Z,3.05
2022-10-15T21:54:05.025Z,2.67
2022-10-15T21:56:32.947Z,2.83
2022-10-15T21:59:01.538Z,2.70
2022-10-15T22:01:32.315Z,2.80
2022-10-15T22:04:08.665Z,2.42
2022-10-15T22:06:40.032Z,2.72
2022-10-15T22:09:10.915Z,2.55
2022-10-15T22:11:41.819Z,2.78
2022-10-15T22:14:11.699Z,2.72
2022-10-15T22:16:40.205Z,2.05
2022-10-15T22:19:13.546Z,2.00
2022-10-15T22:21:40.478Z,1.83
2022-10-15T22:24:17.228Z,2.00
2022-10-15T22:26:48.240Z,2.10
2022-10-15T22:29:26.486Z,1.83
2022-10-15T22:31:54.899Z,1.90
2022-10-15T22:34:23.917Z,1.85
2022-10-15T22:36:51.498Z,1.95
2022-10-15T22:39:21.595Z,1.55
2022-10-15T22:41:51.561Z,1.60
2022-10-15T22:44:20.885Z,1.35
2022-10-15T22:46:49.713Z,1.63
2022-10-15T22:49:20.270Z,1.48
2022-10-15T22:51:49.402Z,1.35
2022-10-15T22:54:24.375Z,1.42
2022-10-15T22:56:54.468Z,1.23
2022-10-15T22:59:22.642Z,1.30
2022-10-15T23:01:49.594Z,1.17
2022-10-15T23:04:18.066Z,1.52
2022-10-15T23:06:45.059Z,1.30
2022-10-15T23:09:21.938Z,1.23
2022-10-15T23:11:49.033Z,1.10
2022-10-15T23:14:16.719Z,1.25
2022-10-15T23:16:48.451Z,1.58
2022-10-15T23:19:20.046Z,1.20
2022-10-15T23:21:52.036Z,1.35
2022-10-15T23:24:22.562Z,1.10
2022-10-15T23:26:49.945Z,0.93
2022-10-15T23:29:20.322Z,1.00
2022-10-15T23:31:48.578Z,1.00
2022-10-15T23:34:19.559Z,0.90
2022-10-15T23:36:52.804Z,0.90
2022-10-15T23:39:23.710Z,1.00
2022-10-15T23:41:51.923Z,0.88
2022-10-15T23:44:20.606Z,1.05
2022-10-15T23:46:47.637Z,1.00
2022-10-15T23:49:16.473Z,1.27
2022-10-15T23:51:43.799Z,1.08
2022-10-15T23:54:16.230Z,0.90
2022-10-15T23:59:13.847Z,1.33
